Aviation Digital Data Service (ADDS)

Output produced by METARs form (0455 UTC 16 February 2019)
found at http://www.aviationweather.gov/metar/data/
 
METAR text: RJOF 160352Z 31011KT 9999 -SHRA FEW020 SCT030 BKN040 08/01 Q1017 RMK 1CU020 3CU030 7CU040 A3005
Conditions at: RJOF (HOFU (JASDF) , JP) observed 0352 UTC 16 February 2019
Temperature: 8.0°C (46°F)
Dewpoint: 1.0°C (34°F) [RH = 61%]
Pressure (altimeter): 30.03 inches Hg (1017.0 mb)
Winds: from the NW (310 degrees) at 13 MPH (11 knots; 5.7 m/s)
Visibility: 6 or more miles (10+ km)
Ceiling: 4000 feet AGL
Clouds: few clouds at 2000 feet AGL
scattered clouds at 3000 feet AGL
broken clouds at 4000 feet AGL
Weather: -SHRA  (light rain showers)

METAR text: RJOF 160346Z 32010KT 280V340 9999 FEW020 SCT030 BKN040 08/01 Q1017 RMK 1CU020 3CU030 7CU040 A3006
Conditions at: RJOF (HOFU (JASDF) , JP) observed 0346 UTC 16 February 2019
Temperature: 8.0°C (46°F)
Dewpoint: 1.0°C (34°F) [RH = 61%]
Pressure (altimeter): 30.03 inches Hg (1017.0 mb)
Winds: from the NW (320 degrees) at 12 MPH (10 knots; 5.1 m/s)
Visibility: 6 or more miles (10+ km)
Ceiling: 4000 feet AGL
Clouds: few clouds at 2000 feet AGL
scattered clouds at 3000 feet AGL
broken clouds at 4000 feet AGL
Weather: no significant weather observed at this time

METAR text: RJOF 160314Z 33010KT 300V360 9999 -SHRA FEW020 SCT030 BKN040 08/01 Q1018 RMK 1CU020 3CU030 7CU040 A3007
Conditions at: RJOF (HOFU (JASDF) , JP) observed 0314 UTC 16 February 2019
Temperature: 8.0°C (46°F)
Dewpoint: 1.0°C (34°F) [RH = 61%]
Pressure (altimeter): 30.06 inches Hg (1018.0 mb)
Winds: from the NNW (330 degrees) at 12 MPH (10 knots; 5.1 m/s)
Visibility: 6 or more miles (10+ km)
Ceiling: 4000 feet AGL
Clouds: few clouds at 2000 feet AGL
scattered clouds at 3000 feet AGL
broken clouds at 4000 feet AGL
Weather: -SHRA  (light rain showers)

METAR text: RJOF 151718Z VRB01KT 9999 FEW015 SCT020 BKN030 06/05 Q1017 RMK 1CU015 3CU020 7CU030 A3006
Conditions at: RJOF (HOFU (JASDF) , JP) observed 1718 UTC 15 February 2019
Temperature: 6.0°C (43°F)
Dewpoint: 5.0°C (41°F) [RH = 93%]
Pressure (altimeter): 30.03 inches Hg (1017.0 mb)
Winds: variable direction winds at 1 MPH (1 knots; 0.5 m/s)
Visibility: 6 or more miles (10+ km)
Ceiling: 3000 feet AGL
Clouds: few clouds at 1500 feet AGL
scattered clouds at 2000 feet AGL
broken clouds at 3000 feet AGL
Weather: no significant weather observed at this time

METAR text: RJOF 151219Z 36003KT 9999 -SHRA FEW010 BKN020 BKN030 07/04 Q1019 RMK 1ST010 5CU020 7CU030 A3012
Conditions at: RJOF (HOFU (JASDF) , JP) observed 1219 UTC 15 February 2019
Temperature: 7.0°C (45°F)
Dewpoint: 4.0°C (39°F) [RH = 81%]
Pressure (altimeter): 30.09 inches Hg (1019.0 mb)
Winds: from the N (360 degrees) at 3 MPH (3 knots; 1.5 m/s)
Visibility: 6 or more miles (10+ km)
Ceiling: 2000 feet AGL
Clouds: few clouds at 1000 feet AGL
broken clouds at 2000 feet AGL
broken clouds at 3000 feet AGL
Weather: -SHRA  (light rain showers)

METAR text: RJOF 151138Z 35003KT 9999 -SHRA FEW010 SCT020 BKN030 07/04 Q1019 RMK 1ST010 3CU020 6CU030 A3012
Conditions at: RJOF (HOFU (JASDF) , JP) observed 1138 UTC 15 February 2019
Temperature: 7.0°C (45°F)
Dewpoint: 4.0°C (39°F) [RH = 81%]
Pressure (altimeter): 30.09 inches Hg (1019.0 mb)
Winds: from the N (350 degrees) at 3 MPH (3 knots; 1.5 m/s)
Visibility: 6 or more miles (10+ km)
Ceiling: 3000 feet AGL
Clouds: few clouds at 1000 feet AGL
scattered clouds at 2000 feet AGL
broken clouds at 3000 feet AGL
Weather: -SHRA  (light rain showers)

METAR text: RJOF 151038Z 01003KT 9999 FEW020 BKN030 BKN040 07/04 Q1019 RMK 1CU020 6CU030 7CU040 A3012
Conditions at: RJOF (HOFU (JASDF) , JP) observed 1038 UTC 15 February 2019
Temperature: 7.0°C (45°F)
Dewpoint: 4.0°C (39°F) [RH = 81%]
Pressure (altimeter): 30.09 inches Hg (1019.0 mb)
Winds: from the N (10 degrees) at 3 MPH (3 knots; 1.5 m/s)
Visibility: 6 or more miles (10+ km)
Ceiling: 3000 feet AGL
Clouds: few clouds at 2000 feet AGL
broken clouds at 3000 feet AGL
broken clouds at 4000 feet AGL
Weather: no significant weather observed at this time

METAR text: RJOF 150848Z 08005KT 050V110 9999 -SHRA FEW020 SCT030 BKN040 08/02 Q1020 RMK 1CU020 3CU030 7CU040 A3013
Conditions at: RJOF (HOFU (JASDF) , JP) observed 0848 UTC 15 February 2019
Temperature: 8.0°C (46°F)
Dewpoint: 2.0°C (36°F) [RH = 66%]
Pressure (altimeter): 30.12 inches Hg (1020.0 mb)
Winds: from the E (80 degrees) at 6 MPH (5 knots; 2.6 m/s)
Visibility: 6 or more miles (10+ km)
Ceiling: 4000 feet AGL
Clouds: few clouds at 2000 feet AGL
scattered clouds at 3000 feet AGL
broken clouds at 4000 feet AGL
Weather: -SHRA  (light rain showers)

METAR text: RJOF 150211Z 11008KT 9999 FEW050 BKN120 BKN230 08/M02 Q1024 RMK 1SC050 5AC120 A3024
Conditions at: RJOF (HOFU (JASDF) , JP) observed 0211 UTC 15 February 2019
Temperature: 8.0°C (46°F)
Dewpoint: -2.0°C (28°F) [RH = 49%]
Pressure (altimeter): 30.24 inches Hg (1024.0 mb)
Winds: from the ESE (110 degrees) at 9 MPH (8 knots; 4.1 m/s)
Visibility: 6 or more miles (10+ km)
Ceiling: 12000 feet AGL
Clouds: few clouds at 5000 feet AGL
broken clouds at 12000 feet AGL
broken clouds at 23000 feet AGL
Weather: no significant weather observed at this time

METAR text: RJOF 150109Z 10009KT 9999 FEW050 BKN120 08/M02 Q1024 RMK 1SC050 5AC120 A3027
Conditions at: RJOF (HOFU (JASDF) , JP) observed 0109 UTC 15 February 2019
Temperature: 8.0°C (46°F)
Dewpoint: -2.0°C (28°F) [RH = 49%]
Pressure (altimeter): 30.24 inches Hg (1024.0 mb)
Winds: from the E (100 degrees) at 10 MPH (9 knots; 4.6 m/s)
Visibility: 6 or more miles (10+ km)
Ceiling: 12000 feet AGL
Clouds: few clouds at 5000 feet AGL
broken clouds at 12000 feet AGL
Weather: no significant weather observed at this time

METAR text: RJOF 142218Z VRB01KT 9999 FEW050 BKN120 00/M04 Q1026 RMK 1SC050 5AC120 A3031
Conditions at: RJOF (HOFU (JASDF) , JP) observed 2218 UTC 14 February 2019
Temperature: 0.0°C (32°F)
Dewpoint: -4.0°C (25°F) [RH = 74%]
Pressure (altimeter): 30.30 inches Hg (1026.0 mb)
Winds: variable direction winds at 1 MPH (1 knots; 0.5 m/s)
Visibility: 6 or more miles (10+ km)
Ceiling: 12000 feet AGL
Clouds: few clouds at 5000 feet AGL
broken clouds at 12000 feet AGL
Weather: no significant weather observed at this time